Time;durP1;ratioP1;P1;durP2;ratioP2;P2;SDS_P1;SDS_P2;PMS_P1;PMS_P2;Temp;Humidity;BMP_temperature;BMP_pressure;BME280_temperature;BME280_humidity;BME280_pressure;Samples;Min_cycle;Max_cycle;Signal;HPM_P1;HPM_P2
2023/10/08 00:00:53;;;;;;;3.83;3.15;;;;;;;16.58;48.56;98491.94;5052081;28;20179;-56
2023/10/08 00:03:22;;;;;;;4.65;3.10;;;;;;;16.73;45.21;98492.31;5012081;28;20560;-56
2023/10/08 00:05:49;;;;;;;6.07;3.38;;;;;;;16.59;47.69;98464.00;5012170;28;20190;-56
2023/10/08 00:08:16;;;;;;;4.55;3.47;;;;;;;16.49;48.00;98453.56;5016344;28;20282;-56
2023/10/08 00:10:44;;;;;;;4.63;3.03;;;;;;;16.60;47.42;98463.03;5071744;28;20188;-56
2023/10/08 00:13:10;;;;;;;4.95;3.15;;;;;;;16.57;47.13;98442.44;5071433;28;20263;-56
2023/10/08 00:15:36;;;;;;;3.97;3.35;;;;;;;16.54;47.45;98442.69;5071602;28;20199;-57
2023/10/08 00:18:05;;;;;;;4.82;3.40;;;;;;;16.53;46.85;98430.59;5071556;28;20188;-57
2023/10/08 00:20:42;;;;;;;4.18;3.20;;;;;;;16.70;47.55;98469.91;5071560;28;20191;-56
2023/10/08 00:23:09;;;;;;;4.50;3.28;;;;;;;16.63;47.06;98431.41;5071569;28;20195;-56
2023/10/08 00:25:40;;;;;;;4.50;2.80;;;;;;;16.61;46.85;98438.56;5071523;28;20179;-56
2023/10/08 00:28:10;;;;;;;4.00;2.97;;;;;;;16.62;47.05;98440.22;5071426;28;20735;-56
2023/10/08 00:30:38;;;;;;;6.13;3.15;;;;;;;16.63;45.91;98434.84;5071401;28;20181;-56
2023/10/08 00:33:04;;;;;;;3.85;2.90;;;;;;;16.62;44.86;98419.31;5071277;28;20200;-56
2023/10/08 00:35:30;;;;;;;3.10;2.75;;;;;;;16.85;44.92;98429.25;5114239;28;20163;-56
2023/10/08 00:38:00;;;;;;;5.50;2.85;;;;;;;16.93;42.99;98420.72;5114258;28;20179;-56
2023/10/08 00:40:36;;;;;;;4.40;3.03;;;;;;;17.12;44.22;98425.84;5114325;28;20200;-56
2023/10/08 00:43:04;;;;;;;3.47;2.90;;;;;;;17.02;43.67;98410.19;5114117;28;20601;-57
2023/10/08 00:45:30;;;;;;;3.80;3.20;;;;;;;16.90;44.63;98407.94;5114153;28;20548;-56
2023/10/08 00:47:56;;;;;;;4.97;3.35;;;;;;;17.16;44.21;98428.03;5070794;28;20187;-57
2023/10/08 00:50:30;;;;;;;3.28;2.83;;;;;;;16.60;46.10;98400.31;5070994;28;20197;-57
2023/10/08 00:53:09;;;;;;;6.15;2.95;;;;;;;16.55;46.28;98400.75;5070768;28;20717;-57
2023/10/08 00:55:35;;;;;;;3.88;2.97;;;;;;;16.55;47.12;98394.75;5070983;28;20172;-56
2023/10/08 00:58:08;;;;;;;7.10;3.13;;;;;;;16.52;46.61;98408.91;5070047;28;20203;-57
2023/10/08 01:00:40;;;;;;;5.65;3.15;;;;;;;16.48;46.77;98406.69;5070856;28;20177;-56
2023/10/08 01:03:14;;;;;;;5.57;3.78;;;;;;;16.46;47.16;98437.38;5070740;28;20699;-56
2023/10/08 01:05:47;;;;;;;4.72;3.22;;;;;;;16.58;46.59;98436.22;5070764;28;20184;-56
2023/10/08 01:08:17;;;;;;;4.25;3.22;;;;;;;16.54;46.91;98419.19;5070788;28;20191;-57
2023/10/08 01:10:46;;;;;;;4.53;2.83;;;;;;;16.39;47.03;98410.16;5070651;28;20176;-57
2023/10/08 01:13:20;;;;;;;5.85;2.67;;;;;;;16.59;45.85;98428.25;5070380;28;21081;-56
2023/10/08 01:15:49;;;;;;;4.68;2.97;;;;;;;16.49;44.96;98403.16;5070679;28;20638;-57
2023/10/08 01:18:17;;;;;;;5.68;3.97;;;;;;;16.74;45.11;98426.81;5080111;28;20195;-56
2023/10/08 01:20:52;;;;;;;4.43;3.25;;;;;;;16.78;45.67;98422.13;5113531;28;20168;-57
2023/10/08 01:23:22;;;;;;;6.72;3.90;;;;;;;16.68;46.27;98401.25;5113486;28;20269;-57
2023/10/08 01:25:52;;;;;;;6.28;3.67;;;;;;;16.90;46.77;98439.31;5113444;28;20193;-57
2023/10/08 01:28:29;;;;;;;6.68;3.90;;;;;;;16.60;47.14;98397.72;5113591;28;20187;-57
2023/10/08 01:30:57;;;;;;;4.72;3.25;;;;;;;16.85;47.19;98431.06;5113305;28;20190;-57
2023/10/08 01:33:27;;;;;;;9.10;3.88;;;;;;;16.67;47.84;98422.34;5113190;28;20239;-57
2023/10/08 01:35:53;;;;;;;5.20;3.63;;;;;;;16.63;48.00;98428.81;5113309;28;20188;-57
2023/10/08 01:38:23;;;;;;;4.68;3.55;;;;;;;16.45;47.86;98393.94;5113219;28;20258;-57
2023/10/08 01:40:53;;;;;;;5.53;3.40;;;;;;;16.49;47.50;98424.84;5113130;28;20645;-57
2023/10/08 01:43:19;;;;;;;7.68;3.63;;;;;;;16.40;47.71;98409.19;5112114;28;20176;-57
2023/10/08 01:45:48;;;;;;;5.30;3.83;;;;;;;16.40;47.94;98414.44;5112696;28;20186;-57
2023/10/08 01:48:27;;;;;;;4.65;2.85;;;;;;;16.34;47.63;98410.56;5113023;28;20189;-57
2023/10/08 01:50:58;;;;;;;4.13;2.95;;;;;;;16.19;46.86;98379.78;5112987;28;20645;-58
2023/10/08 01:53:24;;;;;;;3.05;2.75;;;;;;;16.24;45.61;98361.91;5069667;28;20616;-58
2023/10/08 01:55:49;;;;;;;5.22;2.90;;;;;;;16.35;45.59;98374.81;5069684;28;20189;-58
2023/10/08 01:58:16;;;;;;;4.72;3.20;;;;;;;16.36;45.44;98360.78;5069617;28;20234;-58
2023/10/08 02:00:46;;;;;;;3.83;2.70;;;;;;;16.72;44.70;98393.97;5069663;28;20184;-58
2023/10/08 02:03:15;;;;;;;3.53;3.00;;;;;;;16.67;45.47;98406.66;5069938;28;20734;-58
2023/10/08 02:05:42;;;;;;;3.10;2.65;;;;;;;16.50;46.48;98400.38;5069562;28;20212;-58
2023/10/08 02:08:08;;;;;;;4.97;3.00;;;;;;;16.15;47.26;98378.44;5069392;28;20193;-58
2023/10/08 02:10:35;;;;;;;5.25;3.08;;;;;;;16.20;47.52;98404.97;5069480;28;20173;-57
2023/10/08 02:13:01;;;;;;;4.65;3.25;;;;;;;16.05;48.16;98372.41;5069045;28;20405;-57
2023/10/08 02:15:27;;;;;;;4.90;2.92;;;;;;;15.94;49.08;98381.22;5069394;28;20177;-57
2023/10/08 02:17:54;;;;;;;4.30;2.78;;;;;;;15.84;49.24;98363.91;5069462;28;20181;-56
2023/10/08 02:20:21;;;;;;;7.28;3.50;;;;;;;15.77;49.59;98352.38;5069348;28;20222;-57
2023/10/08 02:22:49;;;;;;;8.85;3.13;;;;;;;16.05;48.19;98390.69;5069218;28;20227;-56
2023/10/08 02:25:15;;;;;;;4.00;3.03;;;;;;;16.00;47.96;98383.28;5105714;28;20248;-56
2023/10/08 02:27:41;;;;;;;4.22;2.70;;;;;;;15.99;47.73;98367.75;5112205;28;20183;-56
2023/10/08 02:30:09;;;;;;;4.15;2.83;;;;;;;15.87;47.87;98382.72;5112184;28;20179;-56
2023/10/08 02:32:36;;;;;;;5.93;3.42;;;;;;;16.01;48.25;98391.91;5112262;28;20184;-57
2023/10/08 02:35:02;;;;;;;3.17;2.58;;;;;;;15.77;48.88;98370.66;5112098;28;20252;-57
2023/10/08 02:37:28;;;;;;;4.05;2.83;;;;;;;15.71;48.10;98363.38;5111787;28;20649;-57
2023/10/08 02:39:57;;;;;;;3.40;2.85;;;;;;;16.01;48.42;98391.91;5112059;28;20183;-57
2023/10/08 02:42:24;;;;;;;3.63;2.95;;;;;;;15.95;49.23;98392.47;5112051;28;20168;-57
2023/10/08 02:44:50;;;;;;;5.85;3.33;;;;;;;15.82;49.70;98378.88;5112007;28;20257;-57
2023/10/08 02:47:20;;;;;;;4.63;3.33;;;;;;;15.53;50.19;98358.03;5111906;28;20274;-57
2023/10/08 02:49:48;;;;;;;3.40;2.72;;;;;;;15.77;50.75;98391.50;5111660;28;20621;-57
2023/10/08 02:52:15;;;;;;;4.00;3.22;;;;;;;15.77;50.37;98394.13;5111831;28;20179;-56
2023/10/08 02:54:41;;;;;;;3.95;2.97;;;;;;;15.75;51.19;98385.63;5111657;28;20208;-56
2023/10/08 02:57:13;;;;;;;4.10;3.67;;;;;;;15.50;51.54;98360.06;5111740;28;20200;-57
2023/10/08 02:59:40;;;;;;;4.95;3.17;;;;;;;15.44;51.29;98369.25;5111777;28;20172;-57
2023/10/08 03:02:29;;;;;;;4.38;2.97;;;;;;;15.24;51.05;98359.75;5111964;28;20164;-58
2023/10/08 03:04:55;;;;;;;5.53;3.08;;;;;;;15.20;51.05;98384.44;5111644;28;20179;-57
2023/10/08 03:07:33;;;;;;;3.72;2.42;;;;;;;15.24;49.46;98364.13;5111598;28;20182;-57
2023/10/08 03:10:17;;;;;;;3.55;2.70;;;;;;;15.21;48.86;98327.94;5111611;28;20668;-58
2023/10/08 03:12:46;;;;;;;3.95;2.50;;;;;;;15.54;47.94;98371.88;5111421;28;20187;-58
2023/10/08 03:15:31;;;;;;;3.10;2.70;;;;;;;15.55;46.69;98342.22;5114810;27;20248;-58
2023/10/08 03:18:09;;;;;;;2.92;2.50;;;;;;;15.72;47.15;98376.28;5132056;27;20692;-58
2023/10/08 03:20:38;;;;;;;4.43;2.40;;;;;;;15.56;46.21;98343.91;5131250;27;20273;-58
2023/10/08 03:23:33;;;;;;;5.40;2.47;;;;;;;15.69;45.19;98341.81;5131792;27;20756;-57
2023/10/08 03:26:01;;;;;;;3.33;2.47;;;;;;;16.12;44.11;98373.50;5131926;27;20576;-58
2023/10/08 03:28:34;;;;;;;2.90;2.40;;;;;;;16.18;43.19;98349.44;5131968;27;20170;-58
2023/10/08 03:31:04;;;;;;;2.40;2.20;;;;;;;16.45;42.31;98367.81;5131148;28;20637;-56
2023/10/08 03:33:34;;;;;;;5.15;2.50;;;;;;;16.50;43.48;98363.78;5131648;28;20293;-56
2023/10/08 03:36:04;;;;;;;3.47;2.25;;;;;;;16.61;41.78;98370.66;5131811;28;20353;-56
2023/10/08 03:38:45;;;;;;;3.13;2.10;;;;;;;16.64;41.75;98365.97;5131775;28;20175;-56
2023/10/08 03:41:16;;;;;;;3.83;2.08;;;;;;;16.54;42.18;98343.44;5131829;28;20174;-56
2023/10/08 03:44:12;;;;;;;2.42;2.17;;;;;;;16.41;43.52;98348.16;5131850;28;20183;-56
2023/10/08 03:46:40;;;;;;;3.42;2.47;;;;;;;16.19;45.03;98343.25;5131814;28;20175;-56
2023/10/08 03:49:14;;;;;;;2.72;2.28;;;;;;;16.29;44.38;98359.72;5131579;28;20199;-56
2023/10/08 03:51:39;;;;;;;2.53;2.33;;;;;;;16.18;43.69;98337.22;5131594;28;20183;-56
2023/10/08 03:56:45;;;;;;;2.53;2.25;;;;;;;16.16;43.65;98333.91;5131687;28;20192;-56
2023/10/08 03:59:14;;;;;;;3.35;2.28;;;;;;;16.24;44.28;98335.81;5131613;28;20278;-56
2023/10/08 04:01:43;;;;;;;3.03;2.63;;;;;;;16.32;44.07;98360.25;5131569;28;20171;-56
2023/10/08 04:04:14;;;;;;;3.72;2.80;;;;;;;16.33;44.05;98353.25;5131293;28;20601;-57
2023/10/08 04:06:51;;;;;;;4.32;2.60;;;;;;;16.08;45.31;98332.97;5131588;28;20179;-57
2023/10/08 04:09:23;;;;;;;4.32;3.03;;;;;;;16.00;43.74;98309.38;5131597;28;20223;-57
2023/10/08 04:11:55;;;;;;;5.20;2.45;;;;;;;16.15;43.92;98331.47;5131310;28;20183;-57
2023/10/08 04:14:23;;;;;;;3.30;2.50;;;;;;;16.27;44.05;98351.22;5131665;28;20252;-57
2023/10/08 04:16:52;;;;;;;4.63;2.60;;;;;;;16.38;43.43;98356.25;5131268;28;20178;-57
2023/10/08 04:19:26;;;;;;;4.15;2.60;;;;;;;16.29;44.77;98312.72;5130996;28;20614;-56
2023/10/08 04:21:55;;;;;;;3.22;2.65;;;;;;;16.19;44.21;98306.69;5131273;28;20230;-57
2023/10/08 04:24:28;;;;;;;3.97;2.67;;;;;;;16.30;43.86;98322.19;5131327;28;20175;-56
2023/10/08 04:26:59;;;;;;;3.88;2.90;;;;;;;16.24;45.81;98320.16;5131496;28;20171;-57
2023/10/08 04:29:25;;;;;;;4.68;2.83;;;;;;;16.14;47.72;98324.56;5131255;28;20178;-56
2023/10/08 04:32:01;;;;;;;5.60;3.30;;;;;;;16.01;47.50;98313.63;5131271;27;20171;-56
2023/10/08 04:34:33;;;;;;;5.97;2.75;;;;;;;15.97;47.79;98327.94;5134861;27;20213;-56
2023/10/08 04:37:00;;;;;;;6.95;2.65;;;;;;;16.06;47.18;98345.34;5134895;27;20175;-56
2023/10/08 04:39:33;;;;;;;4.10;2.50;;;;;;;16.12;45.60;98343.00;5134876;27;20186;-56
2023/10/08 04:42:10;;;;;;;3.63;3.10;;;;;;;16.23;45.37;98339.41;5134565;27;20773;-57
2023/10/08 04:44:39;;;;;;;4.78;2.83;;;;;;;16.39;45.20;98331.81;5134920;27;20712;-57
2023/10/08 04:47:06;;;;;;;2.92;2.50;;;;;;;16.61;45.26;98350.56;5134724;27;20229;-57
2023/10/08 04:49:33;;;;;;;3.20;2.80;;;;;;;16.50;43.51;98342.09;5134540;27;20717;-57
2023/10/08 04:52:05;;;;;;;4.20;3.03;;;;;;;16.60;45.99;98332.41;5134724;27;20644;-57
2023/10/08 04:54:30;;;;;;;4.00;2.75;;;;;;;16.60;46.19;98361.16;5134596;27;20210;-57
2023/10/08 04:57:01;;;;;;;4.15;3.55;;;;;;;16.47;47.19;98353.66;5134556;27;20197;-57
2023/10/08 04:59:32;;;;;;;4.45;2.97;;;;;;;16.20;46.92;98334.47;5134612;27;20212;-57
2023/10/08 05:02:12;;;;;;;3.92;2.97;;;;;;;16.33;46.03;98316.69;5134369;27;20186;-57
2023/10/08 05:26:09;;;;;;;3.15;2.85;;;;;;;17.23;43.59;98315.81;5070411;28;20209;-57
2023/10/08 05:28:36;;;;;;;4.88;2.75;;;;;;;17.52;44.18;98342.59;5070325;28;20249;-57
2023/10/08 05:39:29;;;;;;;5.40;2.60;;;;;;;18.09;42.65;98331.63;5030124;28;20193;-57
2023/10/08 05:42:12;;;;;;;6.30;2.63;;;;;;;18.10;41.92;98307.06;5038308;28;20185;-57
2023/10/08 05:44:40;;;;;;;5.80;3.20;;;;;;;18.34;42.31;98329.03;5041543;28;20196;-57
2023/10/08 05:47:12;;;;;;;2.90;2.22;;;;;;;18.36;41.33;98329.69;5049850;28;20181;-57
2023/10/08 05:49:38;;;;;;;4.68;2.42;;;;;;;18.56;37.59;98322.44;5039552;28;20231;-57
2023/10/08 06:10:41;;;;;;;5.22;3.00;;;;;;;19.44;40.08;98348.97;5133167;27;20294;-57
2023/10/08 06:15:48;;;;;;;2.75;2.38;;;;;;;19.59;36.35;98344.75;5132911;27;20178;-57
2023/10/08 06:18:28;;;;;;;4.78;2.80;;;;;;;19.78;38.42;98347.88;5130434;27;20213;-57
2023/10/08 06:21:00;;;;;;;6.35;3.03;;;;;;;19.81;39.06;98342.28;5129075;27;20183;-58
2023/10/08 06:23:28;;;;;;;4.30;2.85;;;;;;;19.72;39.26;98329.31;5132394;27;20174;-57
2023/10/08 06:25:58;;;;;;;4.75;3.15;;;;;;;19.75;39.72;98345.56;5130556;27;20562;-57
2023/10/08 06:28:25;;;;;;;9.90;3.65;;;;;;;19.57;39.23;98325.69;5132713;27;20183;-58
2023/10/08 06:30:53;;;;;;;8.85;3.80;;;;;;;19.50;39.94;98345.69;5124890;27;20178;-58
2023/10/08 06:33:20;;;;;;;3.22;2.60;;;;;;;19.58;36.86;98340.47;5132211;27;20342;-57
2023/10/08 06:36:01;;;;;;;30.13;3.83;;;;;;;20.12;34.20;98364.28;5132707;27;20173;-57
2023/10/08 06:38:30;;;;;;;4.10;2.90;;;;;;;20.40;33.76;98357.69;5132708;27;20255;-57
2023/10/08 06:40:58;;;;;;;6.30;3.10;;;;;;;20.64;34.14;98347.09;5132830;27;20318;-58
2023/10/08 06:43:24;;;;;;;3.03;2.38;;;;;;;21.08;35.01;98371.13;5132512;27;20196;-57
2023/10/08 06:45:53;;;;;;;3.80;2.70;;;;;;;21.35;32.05;98363.59;5132485;27;20175;-57
2023/10/08 06:48:25;;;;;;;3.47;2.60;;;;;;;21.38;31.57;98338.75;5132421;27;20266;-57
2023/10/08 06:51:07;;;;;;;6.10;3.42;;;;;;;21.73;30.67;98346.09;5132340;27;20205;-57
2023/10/08 06:53:33;;;;;;;6.25;2.63;;;;;;;21.98;30.43;98342.28;5132358;27;20210;-57
2023/10/08 06:56:04;;;;;;;5.88;2.85;;;;;;;22.14;31.01;98371.13;5131453;27;20179;-57
2023/10/08 06:58:32;;;;;;;5.40;2.85;;;;;;;22.05;30.92;98336.13;5124543;27;20186;-57
2023/10/08 07:00:58;;;;;;;3.42;2.60;;;;;;;22.23;30.20;98343.69;5128874;27;20184;-58
2023/10/08 07:03:24;;;;;;;6.53;2.47;;;;;;;22.35;30.74;98331.69;5131879;27;20213;-58
2023/10/08 07:05:54;;;;;;;3.58;2.60;;;;;;;22.67;30.30;98369.13;5132117;27;20181;-57
2023/10/08 07:08:23;;;;;;;5.00;3.58;;;;;;;22.67;30.39;98357.75;5132069;27;20178;-57
2023/10/08 07:10:50;;;;;;;4.35;2.92;;;;;;;22.60;30.64;98327.84;5132034;27;20183;-58
2023/10/08 07:13:17;;;;;;;3.67;2.63;;;;;;;22.71;29.76;98344.03;5131990;27;20242;-57
2023/10/08 07:15:51;;;;;;;3.90;2.60;;;;;;;22.90;30.47;98353.22;5131729;27;20202;-57
2023/10/08 07:18:24;;;;;;;4.50;2.70;;;;;;;22.90;30.08;98329.47;5131862;27;20175;-58
2023/10/08 07:20:53;;;;;;;4.55;2.95;;;;;;;23.09;29.44;98349.97;5088417;28;20686;-57
2023/10/08 07:23:29;;;;;;;7.53;3.20;;;;;;;23.21;30.45;98359.09;5088543;28;20184;-58
2023/10/08 07:26:11;;;;;;;5.93;2.80;;;;;;;23.38;29.69;98369.28;5088716;28;20211;-58
2023/10/08 07:28:41;;;;;;;3.80;2.88;;;;;;;23.32;29.52;98342.78;5081831;28;20188;-58
2023/10/08 07:31:23;;;;;;;5.43;2.78;;;;;;;23.60;29.43;98364.81;5076092;28;20196;-59
2023/10/08 07:33:56;;;;;;;5.15;2.97;;;;;;;23.65;29.22;98360.59;5068061;28;20247;-58
2023/10/08 07:36:30;;;;;;;4.78;3.25;;;;;;;23.68;29.91;98352.31;5068122;28;20825;-58
2023/10/08 07:38:56;;;;;;;5.75;2.75;;;;;;;23.77;29.64;98359.91;5068184;28;20187;-58
2023/10/08 07:41:22;;;;;;;4.35;2.88;;;;;;;23.85;29.37;98370.34;5047937;28;20675;-58
2023/10/08 07:43:55;;;;;;;3.72;2.78;;;;;;;23.81;29.29;98334.72;5026759;28;20182;-58
2023/10/08 07:46:26;;;;;;;4.38;3.15;;;;;;;23.89;29.70;98333.03;5026644;28;20336;-58
2023/10/08 07:48:52;;;;;;;5.07;2.60;;;;;;;24.02;29.68;98347.16;5028485;28;20190;-57
2023/10/08 07:51:24;;;;;;;4.97;3.15;;;;;;;24.06;29.88;98353.69;5039685;28;20203;-58
2023/10/08 07:53:55;;;;;;;5.97;3.20;;;;;;;24.03;30.11;98335.59;5068069;28;20291;-57
2023/10/08 07:56:25;;;;;;;6.88;3.65;;;;;;;24.06;29.58;98332.53;5068031;28;20188;-58
2023/10/08 07:58:52;;;;;;;10.93;3.65;;;;;;;24.24;30.49;98344.28;5067995;28;20221;-58
2023/10/08 08:01:20;;;;;;;7.18;3.72;;;;;;;24.23;30.21;98345.31;5068000;28;20267;-58
2023/10/08 08:03:48;;;;;;;4.85;3.13;;;;;;;24.20;29.97;98327.16;5067911;28;20191;-59
2023/10/08 08:06:15;;;;;;;6.65;3.20;;;;;;;24.34;29.97;98333.38;5068616;28;20192;-58
2023/10/08 08:08:41;;;;;;;4.43;3.40;;;;;;;24.29;29.75;98317.25;5071856;28;20279;-58
2023/10/08 08:11:11;;;;;;;6.72;3.47;;;;;;;24.25;30.31;98300.97;5071669;28;20279;-58
2023/10/08 08:13:43;;;;;;;4.13;3.10;;;;;;;24.29;29.00;98296.94;5070300;28;20742;-59
2023/10/08 08:16:16;;;;;;;6.60;3.20;;;;;;;24.56;28.90;98319.84;5091297;28;20188;-59
2023/10/08 08:18:46;;;;;;;7.57;3.50;;;;;;;24.56;29.02;98297.91;5094709;28;20167;-59
2023/10/08 08:21:16;;;;;;;8.63;3.67;;;;;;;24.67;28.86;98319.34;5094521;28;20168;-58
2023/10/08 08:23:47;;;;;;;7.25;3.30;;;;;;;24.63;28.31;98320.78;5051484;28;20280;-59
2023/10/08 08:26:29;;;;;;;4.40;3.40;;;;;;;24.76;28.53;98317.34;5051676;28;20201;-59
2023/10/08 08:29:02;;;;;;;7.70;3.55;;;;;;;24.59;28.68;98284.28;5051598;28;20295;-58
2023/10/08 08:31:31;;;;;;;3.53;2.78;;;;;;;24.84;28.30;98312.72;5049774;28;20352;-57
2023/10/08 08:34:09;;;;;;;4.95;3.33;;;;;;;24.82;28.28;98290.94;5041076;28;20270;-57
2023/10/08 08:36:39;;;;;;;5.90;3.65;;;;;;;24.85;28.29;98314.34;5051088;28;20242;-58
2023/10/08 08:39:05;;;;;;;5.88;3.47;;;;;;;24.81;28.22;98299.88;5051012;28;20363;-57
2023/10/08 08:41:30;;;;;;;3.97;2.90;;;;;;;24.72;28.20;98279.09;5050948;28;20193;-57
2023/10/08 08:43:59;;;;;;;4.90;2.88;;;;;;;24.85;28.29;98293.16;5050977;28;20185;-58
2023/10/08 08:46:27;;;;;;;5.50;3.38;;;;;;;24.97;28.11;98309.31;5051047;28;20185;-58
2023/10/08 08:48:53;;;;;;;6.47;3.75;;;;;;;24.77;28.28;98287.22;5050930;28;20662;-58
2023/10/08 08:51:22;;;;;;;6.60;4.00;;;;;;;24.89;28.17;98294.41;5050950;28;20269;-56
2023/10/08 08:53:47;;;;;;;4.93;3.33;;;;;;;25.07;28.41;98304.47;5057739;28;20697;-58
2023/10/08 08:56:13;;;;;;;7.00;3.63;;;;;;;25.10;28.43;98307.53;5093594;28;20168;-58
2023/10/08 08:58:40;;;;;;;14.88;3.97;;;;;;;25.06;28.61;98310.75;5093395;28;20168;-58
2023/10/08 09:01:09;;;;;;;4.25;3.17;;;;;;;24.96;28.45;98274.06;5093625;28;20200;-58
2023/10/08 09:03:34;;;;;;;7.57;3.30;;;;;;;25.09;28.57;98287.34;5093139;28;20535;-57
2023/10/08 09:06:00;;;;;;;7.65;3.72;;;;;;;25.08;28.44;98280.41;5093312;28;20179;-60
2023/10/08 09:08:33;;;;;;;7.10;3.42;;;;;;;25.09;28.79;98266.16;5093401;28;20502;-57
2023/10/08 09:11:04;;;;;;;10.27;3.55;;;;;;;25.26;29.23;98307.19;5093742;28;20186;-58
2023/10/08 09:13:31;;;;;;;6.18;3.30;;;;;;;25.31;28.47;98294.16;5117798;27;20375;-58
2023/10/08 09:16:03;;;;;;;5.43;3.20;;;;;;;25.29;29.13;98280.31;5134243;27;20177;-58
2023/10/08 09:18:32;;;;;;;5.22;3.30;;;;;;;25.28;28.87;98273.41;5133822;27;20177;-58
2023/10/08 09:21:10;;;;;;;4.72;3.20;;;;;;;25.36;29.37;98285.63;5134026;27;20555;-57
2023/10/08 09:23:39;;;;;;;5.80;3.63;;;;;;;25.32;29.26;98264.00;5133581;27;20395;-57
2023/10/08 09:26:04;;;;;;;7.97;3.70;;;;;;;25.57;29.52;98294.22;5133859;27;20335;-58
2023/10/08 09:28:34;;;;;;;5.30;3.08;;;;;;;25.41;29.77;98256.69;5133940;27;20336;-58
2023/10/08 09:30:59;;;;;;;7.90;3.60;;;;;;;25.69;29.39;98284.66;5133744;27;20174;-58
2023/10/08 09:33:25;;;;;;;6.18;4.05;;;;;;;25.71;29.41;98290.56;5120989;27;20215;-58
2023/10/08 09:35:55;;;;;;;4.95;3.30;;;;;;;25.77;29.55;98288.94;5112929;28;20177;-58
2023/10/08 09:38:23;;;;;;;7.57;3.70;;;;;;;25.73;29.71;98271.81;5113065;28;20352;-58
2023/10/08 09:40:49;;;;;;;6.90;3.80;;;;;;;25.77;29.15;98279.13;5113198;27;20190;-57
2023/10/08 09:43:16;;;;;;;6.75;3.88;;;;;;;25.82;29.34;98268.75;5112944;28;20183;-57
2023/10/08 09:46:26;;;;;;;6.95;3.45;;;;;;;25.83;29.43;98259.75;5113203;28;20310;-58
2023/10/08 09:48:54;;;;;;;5.57;3.45;;;;;;;25.67;29.47;98246.91;5060766;28;20663;-57
2023/10/08 09:51:20;;;;;;;5.70;3.45;;;;;;;25.92;29.54;98287.75;5069729;28;20185;-57
2023/10/08 09:54:24;;;;;;;6.82;3.30;;;;;;;25.91;29.80;98280.81;5069654;28;20208;-57
2023/10/08 09:56:51;;;;;;;6.50;3.30;;;;;;;25.88;29.62;98256.50;5009952;28;20718;-58
2023/10/08 09:59:19;;;;;;;4.43;3.35;;;;;;;25.96;29.81;98257.13;5009942;28;20271;-57
2023/10/08 10:01:47;;;;;;;7.68;3.88;;;;;;;25.82;29.30;98215.72;5009665;28;20189;-61
2023/10/08 10:04:28;;;;;;;6.28;3.58;;;;;;;26.06;29.61;98241.63;5009876;28;20743;-62
2023/10/08 10:06:57;;;;;;;5.85;3.40;;;;;;;26.21;29.86;98247.53;5009574;28;20325;-57
2023/10/08 10:09:24;;;;;;;7.28;4.28;;;;;;;26.32;29.48;98243.41;5009617;28;20256;-57
2023/10/08 10:11:52;;;;;;;5.68;3.38;;;;;;;26.43;29.86;98237.47;5009655;28;20193;-59
2023/10/08 10:14:22;;;;;;;9.90;3.33;;;;;;;26.32;29.84;98204.44;5009445;28;20230;-59
2023/10/08 10:17:14;;;;;;;13.05;3.53;;;;;;;26.59;28.88;98240.50;5009842;28;20174;-58
2023/10/08 10:19:45;;;;;;;5.85;3.50;;;;;;;26.58;28.92;98227.44;5018047;28;20224;-59
2023/10/08 10:22:15;;;;;;;7.50;3.38;;;;;;;26.49;29.31;98216.22;5049634;28;20609;-56
2023/10/08 10:24:41;;;;;;;6.25;3.10;;;;;;;26.54;28.67;98221.72;5048965;28;20257;-58
2023/10/08 10:27:17;;;;;;;6.05;3.20;;;;;;;26.72;28.69;98243.13;5048815;28;20185;-58
2023/10/08 10:29:44;;;;;;;4.72;2.92;;;;;;;26.71;29.02;98219.44;5050082;28;20223;-58
2023/10/08 10:32:14;;;;;;;4.95;2.70;;;;;;;26.93;28.81;98218.91;5071578;28;20173;-57
2023/10/08 10:34:41;;;;;;;7.00;3.17;;;;;;;26.89;29.33;98204.41;5071502;28;20765;-57
2023/10/08 10:37:19;;;;;;;3.90;3.00;;;;;;;27.18;29.06;98229.63;5071527;28;20176;-58
2023/10/08 10:39:55;;;;;;;7.15;2.63;;;;;;;27.11;28.87;98191.63;5048931;28;20188;-58
2023/10/08 10:42:20;;;;;;;5.13;2.45;;;;;;;27.26;28.48;98185.00;5049147;28;20199;-58
2023/10/08 10:44:49;;;;;;;6.03;2.80;;;;;;;27.52;28.59;98218.56;5028942;28;20185;-58
2023/10/08 10:49:52;;;;;;;6.75;3.00;;;;;;;27.54;28.25;98174.78;5029004;28;20208;-58
2023/10/08 10:52:51;;;;;;;6.20;2.92;;;;;;;27.73;28.53;98181.75;5029033;28;20185;-58
2023/10/08 10:55:20;;;;;;;6.32;2.65;;;;;;;27.76;28.55;98188.47;5028763;28;20690;-58
2023/10/08 10:57:56;;;;;;;5.28;2.60;;;;;;;27.68;28.43;98170.13;5028773;28;20628;-58
2023/10/08 11:03:02;;;;;;;6.80;2.30;;;;;;;27.92;28.96;98195.94;5028877;28;20212;-58
2023/10/08 11:05:37;;;;;;;4.78;2.55;;;;;;;27.96;28.62;98184.63;5028662;28;20292;-58
2023/10/08 11:08:07;;;;;;;5.15;2.38;;;;;;;27.85;28.44;98144.63;5028705;28;20184;-58
2023/10/08 11:10:50;;;;;;;6.13;2.83;;;;;;;28.10;28.04;98172.00;5036895;28;20661;-58
2023/10/08 11:13:16;;;;;;;4.28;2.30;;;;;;;27.90;28.59;98153.59;5057726;28;20232;-58
2023/10/08 11:15:48;;;;;;;5.90;1.95;;;;;;;27.98;28.53;98145.31;5078935;28;20190;-58
2023/10/08 11:18:15;;;;;;;5.68;2.70;;;;;;;28.06;28.61;98163.66;5091105;28;20186;-58
2023/10/08 11:20:44;;;;;;;5.47;2.58;;;;;;;27.92;28.75;98127.56;5091200;28;20172;-58
2023/10/08 11:23:19;;;;;;;10.50;2.97;;;;;;;28.03;29.00;98129.50;5091044;28;20275;-58
2023/10/08 11:26:02;;;;;;;5.18;2.80;;;;;;;28.14;28.97;98131.41;5090821;28;20175;-58
2023/10/08 11:28:41;;;;;;;8.85;2.17;;;;;;;28.14;28.32;98127.94;5091114;28;20215;-58
2023/10/08 11:31:11;;;;;;;4.95;2.47;;;;;;;28.44;28.03;98148.28;5091012;28;20167;-58
2023/10/08 11:33:38;;;;;;;4.60;2.40;;;;;;;28.50;28.25;98128.75;5090939;28;20301;-58
2023/10/08 11:36:27;;;;;;;4.13;2.65;;;;;;;28.54;28.47;98107.81;5090853;28;20206;-58
2023/10/08 11:39:00;;;;;;;6.68;3.00;;;;;;;28.81;28.29;98128.50;5090958;28;20190;-58
2023/10/08 11:41:27;;;;;;;9.40;2.90;;;;;;;28.71;27.92;98108.78;5092109;28;20332;-58
2023/10/08 11:43:58;;;;;;;8.32;2.45;;;;;;;28.77;27.87;98107.88;5095251;28;20610;-58
2023/10/08 11:46:38;;;;;;;8.07;3.30;;;;;;;28.98;27.59;98136.72;5095141;28;20264;-58
2023/10/08 11:49:04;;;;;;;6.55;2.90;;;;;;;28.79;28.00;98109.28;5094966;28;20186;-58
2023/10/08 11:51:34;;;;;;;7.53;2.83;;;;;;;28.80;27.73;98108.25;5095064;28;20254;-58
2023/10/08 11:54:05;;;;;;;7.00;3.03;;;;;;;29.02;28.24;98130.69;5094831;28;20697;-58
2023/10/08 11:56:33;;;;;;;7.80;3.28;;;;;;;29.10;27.52;98151.66;5094958;28;20183;-58
2023/10/08 11:59:00;;;;;;;5.88;2.75;;;;;;;28.96;27.64;98112.97;5094790;28;20350;-58
2023/10/08 12:01:27;;;;;;;7.70;2.80;;;;;;;28.99;27.00;98117.84;5094828;28;20612;-58
2023/10/08 12:03:59;;;;;;;8.55;3.00;;;;;;;28.84;27.68;98092.59;5094970;28;20239;-58
2023/10/08 12:06:25;;;;;;;8.70;2.72;;;;;;;28.97;27.85;98103.91;5094735;28;20179;-58
2023/10/08 12:08:53;;;;;;;5.60;2.75;;;;;;;29.06;27.66;98107.88;5094760;28;20199;-58
2023/10/08 12:11:19;;;;;;;9.35;2.90;;;;;;;28.83;27.59;98081.16;5094891;28;20193;-58
2023/10/08 12:13:45;;;;;;;6.20;2.78;;;;;;;28.86;27.86;98086.00;5108327;28;20302;-57
2023/10/08 12:16:18;;;;;;;7.63;2.53;;;;;;;28.77;27.76;98092.72;5114503;28;20274;-57
2023/10/08 12:18:58;;;;;;;7.63;3.15;;;;;;;28.65;27.81;98078.56;5114868;28;20330;-57
2023/10/08 12:21:33;;;;;;;10.35;3.28;;;;;;;28.65;28.28;98083.06;5114859;28;20209;-58
2023/10/08 12:23:58;;;;;;;13.68;3.33;;;;;;;28.50;28.18;98064.84;5115008;28;20192;-57
2023/10/08 12:26:24;;;;;;;9.23;3.03;;;;;;;28.60;28.49;98086.41;5114838;28;20167;-58
2023/10/08 12:28:51;;;;;;;7.80;2.88;;;;;;;28.44;28.60;98060.44;5114612;28;20691;-58
2023/10/08 12:31:22;;;;;;;5.18;2.65;;;;;;;28.61;28.60;98088.03;5114579;28;20187;-58
2023/10/08 12:33:48;;;;;;;7.22;3.10;;;;;;;28.46;28.35;98058.34;5114601;28;20199;-58
2023/10/08 12:36:14;;;;;;;7.88;2.78;;;;;;;28.70;28.41;98099.19;5114552;28;20611;-58
2023/10/08 12:38:41;;;;;;;13.25;2.95;;;;;;;28.50;27.97;98064.03;5114155;28;20258;-58
2023/10/08 12:41:13;;;;;;;6.22;2.70;;;;;;;28.52;28.21;98096.56;5114417;28;20168;-56
2023/10/08 12:43:42;;;;;;;5.95;2.75;;;;;;;28.29;28.75;98049.31;5114382;28;20244;-57
2023/10/08 12:46:10;;;;;;;8.18;3.08;;;;;;;28.52;28.91;98099.22;5114287;28;20204;-57
2023/10/08 12:48:36;;;;;;;7.43;2.85;;;;;;;28.57;28.46;98086.06;5114233;28;20179;-58